createdAt,value
2019-05-11T00:01:27.802Z,48.2
2019-05-11T00:11:26.928Z,37.5
2019-05-11T00:21:26.757Z,43.2
2019-05-11T00:31:26.392Z,37.6
2019-05-11T00:41:27.368Z,39.4
2019-05-11T00:51:27.455Z,36.7
2019-05-11T01:01:27.491Z,33.9
2019-05-11T01:11:28.688Z,29.9
2019-05-11T01:21:26.669Z,27.1
2019-05-11T01:31:26.809Z,31.9
2019-05-11T01:41:26.351Z,29.4
2019-05-11T01:51:27.478Z,25.2
2019-05-11T02:01:26.949Z,25.7
2019-05-11T02:11:26.499Z,25.1
2019-05-11T02:21:27.651Z,36.7
2019-05-11T02:31:27.660Z,26.1
2019-05-11T02:41:37.502Z,25.8
2019-05-11T02:51:27.303Z,24.0
2019-05-11T03:01:26.866Z,23.5
2019-05-11T03:11:26.645Z,24.4
2019-05-11T03:21:26.445Z,27.4
2019-05-11T03:31:26.985Z,25.3
2019-05-11T03:41:26.819Z,25.4
2019-05-11T03:51:30.412Z,22.4
2019-05-11T04:01:27.247Z,24.7
2019-05-11T04:11:26.898Z,24.2
2019-05-11T04:21:27.044Z,21.2
2019-05-11T04:31:26.793Z,24.4
2019-05-11T04:41:27.201Z,20.1
2019-05-11T04:51:27.376Z,22.3
2019-05-11T05:01:25.931Z,22.7
2019-05-11T05:11:30.422Z,28.5
2019-05-11T05:21:27.757Z,21.9
2019-05-11T05:31:26.266Z,23.8
2019-05-11T05:41:27.871Z,24.3
2019-05-11T05:51:27.343Z,15.3
2019-05-11T06:01:27.501Z,13.5
2019-05-11T06:11:26.642Z,14.3
2019-05-11T06:21:27.067Z,13.5
2019-05-11T06:31:26.875Z,14.4
2019-05-11T06:41:25.754Z,12.6
2019-05-11T06:51:27.332Z,17.7
2019-05-11T07:01:28.020Z,15.3
2019-05-11T07:11:26.982Z,10.7
2019-05-11T07:21:27.985Z,11.6
2019-05-11T07:31:26.789Z,14.0
2019-05-11T07:41:28.992Z,7.0
2019-05-11T07:51:29.534Z,8.4
2019-05-11T08:01:28.891Z,7.3
2019-05-11T08:11:31.606Z,9.9
2019-05-11T08:21:29.115Z,5.5
2019-05-11T08:31:28.605Z,7.2
2019-05-11T08:41:28.769Z,5.1
2019-05-11T08:51:28.652Z,5.5
2019-05-11T09:01:29.423Z,3.4
2019-05-11T09:11:29.018Z,5.0
2019-05-11T09:21:28.695Z,3.2
2019-05-11T09:31:28.736Z,2.7
2019-05-11T09:41:28.673Z,2.6
2019-05-11T09:51:29.319Z,5.4
2019-05-11T10:01:30.346Z,3.9
2019-05-11T10:11:27.990Z,2.5
2019-05-11T10:21:30.331Z,3.0
2019-05-11T10:31:25.442Z,4.1
2019-05-11T10:41:25.501Z,3.5
2019-05-11T10:51:26.014Z,3.2
2019-05-11T11:01:29.191Z,2.1
2019-05-11T11:11:28.498Z,4.0
2019-05-11T11:21:28.537Z,3.1
2019-05-11T11:31:29.342Z,1.4
2019-05-11T11:41:26.535Z,1.3
2019-05-11T11:51:28.041Z,2.0
2019-05-11T12:01:28.758Z,1.8
2019-05-11T12:11:28.674Z,1.7
2019-05-11T12:21:27.522Z,6.9
2019-05-11T12:31:33.075Z,1.9
2019-05-11T12:41:27.806Z,2.2
2019-05-11T12:51:28.630Z,1.5
2019-05-11T13:01:25.380Z,1.9
2019-05-11T13:11:28.417Z,2.0
2019-05-11T13:21:29.326Z,1.3
2019-05-11T13:31:28.542Z,3.3
2019-05-11T13:41:28.626Z,0.9
2019-05-11T13:51:28.368Z,2.7
2019-05-11T14:01:28.489Z,1.4
2019-05-11T14:11:28.391Z,1.3
2019-05-11T14:21:27.747Z,2.6
2019-05-11T14:31:28.732Z,1.2
2019-05-11T14:41:25.737Z,1.6
2019-05-11T14:51:28.857Z,2.0
2019-05-11T15:01:25.938Z,4.7
2019-05-11T15:11:28.699Z,2.4
2019-05-11T15:21:27.915Z,1.3
2019-05-11T15:31:28.482Z,2.5
2019-05-11T15:41:28.685Z,2.0
2019-05-11T15:51:28.940Z,3.7
2019-05-11T16:01:29.473Z,5.2
2019-05-11T16:11:29.072Z,3.3
2019-05-11T16:21:29.186Z,3.5
2019-05-11T16:31:25.825Z,2.3
2019-05-11T16:41:25.946Z,3.0
2019-05-11T16:51:29.118Z,3.5
2019-05-11T17:01:25.715Z,4.3
2019-05-11T17:11:28.793Z,8.2
2019-05-11T17:21:30.139Z,3.4
2019-05-11T17:31:26.519Z,4.8
2019-05-11T17:41:28.650Z,3.5
2019-05-11T17:51:28.385Z,7.0
2019-05-11T18:01:27.270Z,5.1
2019-05-11T18:11:30.614Z,6.4
2019-05-11T18:21:28.720Z,6.7
2019-05-11T18:31:25.563Z,6.5
2019-05-11T18:41:25.620Z,10.4
2019-05-11T18:51:25.914Z,11.7
2019-05-11T19:01:28.411Z,11.5
2019-05-11T19:11:28.355Z,16.3
2019-05-11T19:21:28.049Z,11.8
2019-05-11T19:31:28.800Z,13.8
2019-05-11T19:41:28.575Z,22.1
2019-05-11T19:51:29.773Z,16.6
2019-05-11T20:01:27.757Z,15.7
2019-05-11T20:11:28.633Z,12.2
2019-05-11T20:21:28.445Z,9.0
2019-05-11T20:31:28.366Z,9.4
2019-05-11T20:41:28.627Z,14.6
2019-05-11T20:51:37.417Z,16.4
2019-05-11T21:01:29.356Z,12.3
2019-05-11T21:11:27.932Z,21.7
2019-05-11T21:21:30.809Z,29.7
2019-05-11T21:31:29.841Z,43.8
2019-05-11T21:41:31.387Z,47.9
2019-05-11T21:51:29.826Z,51.3
2019-05-11T22:01:28.825Z,35.2
2019-05-11T22:11:29.120Z,26.6
2019-05-11T22:21:28.760Z,26.1
2019-05-11T22:31:28.874Z,27.7
2019-05-11T22:41:25.836Z,28.3
2019-05-11T22:51:28.572Z,26.7
2019-05-11T23:01:28.966Z,28.0
2019-05-11T23:11:25.761Z,21.9
2019-05-11T23:21:30.749Z,25.9
2019-05-11T23:31:28.579Z,21.8
2019-05-11T23:41:29.551Z,22.1
2019-05-11T23:51:28.214Z,21.7
